createdAt,value
2022-12-03T00:04:19.000Z,49.80
2022-12-03T00:14:19.000Z,60.60
2022-12-03T00:34:18.000Z,47.40
2022-12-03T00:44:18.000Z,46.70
2022-12-03T00:44:18.000Z,46.70
2022-12-03T00:54:18.000Z,58.70
2022-12-03T01:04:18.000Z,52.20
2022-12-03T01:14:18.000Z,68.70
2022-12-03T01:24:18.000Z,63.80
2022-12-03T01:34:18.000Z,59.90
2022-12-03T01:44:17.000Z,62.40
2022-12-03T02:04:17.000Z,49.90
2022-12-03T02:14:17.000Z,48.60
2022-12-03T02:24:17.000Z,59.30
2022-12-03T02:34:17.000Z,66.40
2022-12-03T02:44:17.000Z,48.30
2022-12-03T02:54:16.000Z,46.00
2022-12-03T03:04:16.000Z,55.00
2022-12-03T03:14:16.000Z,43.60
2022-12-03T03:34:16.000Z,48.40
2022-12-03T03:44:16.000Z,47.00
2022-12-03T03:54:16.000Z,47.80
2022-12-03T04:04:16.000Z,50.50
2022-12-03T04:14:15.000Z,20.90
2022-12-03T04:24:15.000Z,44.90
2022-12-03T04:34:15.000Z,30.90
2022-12-03T04:44:15.000Z,45.90
2022-12-03T05:04:15.000Z,38.90
2022-12-03T05:14:15.000Z,43.50
2022-12-03T05:24:15.000Z,33.00
2022-12-03T05:34:14.000Z,46.50
2022-12-03T05:44:14.000Z,37.10
2022-12-03T05:54:14.000Z,33.40
2022-12-03T06:04:14.000Z,46.70
2022-12-03T06:14:14.000Z,46.30
2022-12-03T06:34:14.000Z,49.10
2022-12-03T06:44:14.000Z,27.40
2022-12-03T06:54:13.000Z,35.10
2022-12-03T07:04:13.000Z,43.40
2022-12-03T07:14:13.000Z,50.20
2022-12-03T07:24:13.000Z,42.40
2022-12-03T07:34:13.000Z,33.90
2022-12-03T07:44:13.000Z,36.70
2022-12-03T08:04:12.000Z,44.40
2022-12-03T08:14:12.000Z,42.50
2022-12-03T08:24:12.000Z,51.70
2022-12-03T08:34:12.000Z,52.00
2022-12-03T08:44:12.000Z,39.50
2022-12-03T08:54:12.000Z,39.70
2022-12-03T09:04:12.000Z,47.80
2022-12-03T09:14:12.000Z,39.60
2022-12-03T09:34:11.000Z,30.50
2022-12-03T09:44:11.000Z,48.40
2022-12-03T09:54:11.000Z,28.90
2022-12-03T10:04:11.000Z,34.30
2022-12-03T10:14:11.000Z,46.70
2022-12-03T10:24:11.000Z,45.20
2022-12-03T10:34:11.000Z,34.90
2022-12-03T10:44:10.000Z,47.90
2022-12-03T11:04:10.000Z,36.80
2022-12-03T11:14:10.000Z,37.20
2022-12-03T11:24:10.000Z,39.40
2022-12-03T11:34:10.000Z,38.90
2022-12-03T11:44:10.000Z,26.50
2022-12-03T11:54:09.000Z,35.80
2022-12-03T12:04:09.000Z,51.10
2022-12-03T12:14:09.000Z,43.60
2022-12-03T12:34:09.000Z,40.30
2022-12-03T12:44:09.000Z,25.80
2022-12-03T12:54:09.000Z,49.70
2022-12-03T13:04:09.000Z,46.20
2022-12-03T13:14:08.000Z,57.90
2022-12-03T13:24:08.000Z,48.20
2022-12-03T13:34:08.000Z,44.50
2022-12-03T13:44:08.000Z,54.50
2022-12-03T14:04:08.000Z,53.30
2022-12-03T14:14:08.000Z,81.20
2022-12-03T14:24:08.000Z,72.70
2022-12-03T14:34:07.000Z,54.40
2022-12-03T14:44:07.000Z,64.50
2022-12-03T14:54:07.000Z,55.10
2022-12-03T15:04:07.000Z,56.70
2022-12-03T15:14:07.000Z,41.90
2022-12-03T15:14:07.000Z,41.90
2022-12-03T15:34:07.000Z,42.50
2022-12-03T15:44:06.000Z,80.10
2022-12-03T15:54:06.000Z,55.90
2022-12-03T16:04:06.000Z,94.10
2022-12-03T16:14:06.000Z,68.50
2022-12-03T16:24:06.000Z,72.90
2022-12-03T16:34:06.000Z,54.90
2022-12-03T16:44:06.000Z,39.80
2022-12-03T17:04:05.000Z,58.70
2022-12-03T17:14:05.000Z,49.20
2022-12-03T17:24:05.000Z,43.10
2022-12-03T17:34:05.000Z,65.00
2022-12-03T17:34:05.000Z,65.00
2022-12-03T17:44:05.000Z,42.50
2022-12-03T17:54:05.000Z,86.50
2022-12-03T18:04:05.000Z,66.90
2022-12-03T18:14:05.000Z,78.80
2022-12-03T18:34:04.000Z,62.80
2022-12-03T18:44:04.000Z,76.30
2022-12-03T18:54:04.000Z,90.30
2022-12-03T19:04:04.000Z,72.30
2022-12-03T19:14:04.000Z,79.00
2022-12-03T19:34:21.000Z,85.20
2022-12-03T19:34:21.000Z,60.00
2022-12-03T19:44:21.000Z,69.60
2022-12-03T19:54:21.000Z,98.80
2022-12-03T20:04:21.000Z,92.70
2022-12-03T20:14:21.000Z,88.30
2022-12-03T20:24:20.000Z,74.80
2022-12-03T20:34:20.000Z,53.60
2022-12-03T20:44:20.000Z,85.40
2022-12-03T21:04:20.000Z,68.00
2022-12-03T21:14:20.000Z,106.20
2022-12-03T21:24:20.000Z,71.70
2022-12-03T21:24:20.000Z,71.70
2022-12-03T21:34:19.000Z,77.50
2022-12-03T21:44:19.000Z,104.40
2022-12-03T21:54:19.000Z,83.20
2022-12-03T22:04:19.000Z,78.60
2022-12-03T22:14:19.000Z,69.00
2022-12-03T22:34:19.000Z,94.60
2022-12-03T22:44:19.000Z,114.90
2022-12-03T22:54:18.000Z,60.10
2022-12-03T23:04:18.000Z,78.20
2022-12-03T23:14:18.000Z,49.00
2022-12-03T23:24:18.000Z,55.40
2022-12-03T23:34:18.000Z,92.30
2022-12-03T23:44:18.000Z,67.90
